LLN weather

Levelland Municipal Airport
Levelland, Texas, United States

Public forecast

Using degrees Fahrenheit for public forecast. Weather courtesy of forecast.io.

Closest aviation weather report (METAR) to Levelland Municipal Airport

Closest report is Lubbock Preston Smith International Airport, 28.3 nm (52.3 km) ENE. Retrieved 2020/02/17 02:53 UTC (24 minutes ago):

KLBB 170253Z 24004KT 10SM SCT260 14/M04 A2984 RMK AO2 SLP088 T01391044 53004

Closest aviation forecast (TAF) to Levelland Municipal Airport

Closest forecast is Lubbock Preston Smith International Airport, 28.3 nm (52.3 km) ENE. Retrieved 2020-02-17 00:33 UTC (3 hours ago):

TAF KLBB 162330Z 1700/1724 25011KT P6SM SCT250 FM170800 26011KT P6SM FEW250 WS009/28040KT FM171300 30011KT P6SM FEW250 FM171800 35011KT P6SM FEW250